createdAt,value
2023-04-18T00:00:49.696Z,7.97
2023-04-18T00:01:51.556Z,7.37
2023-04-18T00:02:54.991Z,7.70
2023-04-18T00:03:56.689Z,7.37
2023-04-18T00:04:58.228Z,7.30
2023-04-18T00:05:59.607Z,8.00
2023-04-18T00:07:00.977Z,8.53
2023-04-18T00:08:02.914Z,7.23
2023-04-18T00:09:04.421Z,7.87
2023-04-18T00:10:06.260Z,7.63
2023-04-18T00:11:07.621Z,8.20
2023-04-18T00:12:09.955Z,7.67
2023-04-18T00:13:12.035Z,7.47
2023-04-18T00:14:13.556Z,8.10
2023-04-18T00:15:15.041Z,7.43
2023-04-18T00:16:16.391Z,7.47
2023-04-18T00:17:18.586Z,7.63
2023-04-18T00:18:20.326Z,8.13
2023-04-18T00:19:21.618Z,8.17
2023-04-18T00:20:26.558Z,7.10
2023-04-18T00:21:27.902Z,7.53
2023-04-18T00:22:29.209Z,7.40
2023-04-18T00:23:30.592Z,7.87
2023-04-18T00:24:31.880Z,7.90
2023-04-18T00:25:33.304Z,8.17
2023-04-18T00:26:34.634Z,7.90
2023-04-18T00:27:36.605Z,8.13
2023-04-18T00:28:37.944Z,7.53
2023-04-18T00:29:40.757Z,7.27
2023-04-18T00:30:42.076Z,8.07
2023-04-18T00:31:43.449Z,7.63
2023-04-18T00:32:44.754Z,7.70
2023-04-18T00:33:46.167Z,7.87
2023-04-18T00:34:47.590Z,7.47
2023-04-18T00:35:48.890Z,7.50
2023-04-18T00:36:50.233Z,7.80
2023-04-18T00:37:51.869Z,8.17
2023-04-18T00:38:53.225Z,7.77
2023-04-18T00:39:54.574Z,8.47
2023-04-18T00:40:55.904Z,7.87
2023-04-18T00:41:57.337Z,8.10
2023-04-18T00:42:58.817Z,7.70
2023-04-18T00:44:00.130Z,7.57
2023-04-18T00:45:01.766Z,7.27
2023-04-18T00:46:03.344Z,7.67
2023-04-18T00:47:04.740Z,7.60
2023-04-18T00:48:06.397Z,7.10
2023-04-18T00:49:07.978Z,7.77
2023-04-18T00:50:09.890Z,8.20
2023-04-18T00:51:11.331Z,7.70
2023-04-18T00:52:12.804Z,7.93
2023-04-18T00:53:15.410Z,7.97
2023-04-18T00:54:17.934Z,7.83
2023-04-18T00:55:20.176Z,7.53
2023-04-18T00:56:21.554Z,7.83
2023-04-18T00:57:22.853Z,7.63
2023-04-18T00:58:25.830Z,8.00
2023-04-18T00:59:27.151Z,8.10
2023-04-18T01:00:28.525Z,7.87
2023-04-18T01:01:29.974Z,7.83
2023-04-18T01:02:31.946Z,7.63
2023-04-18T01:03:34.650Z,7.80
2023-04-18T01:04:37.216Z,7.80
2023-04-18T01:05:38.572Z,8.17
2023-04-18T01:06:40.647Z,8.20
2023-04-18T01:07:42.754Z,8.60
2023-04-18T01:08:44.829Z,8.07
2023-04-18T01:09:46.639Z,8.00
2023-04-18T01:10:48.717Z,8.13
2023-04-18T01:11:50.414Z,7.97
2023-04-18T01:13:09.074Z,7.87
2023-04-18T01:14:10.504Z,7.90
2023-04-18T01:15:11.885Z,8.20
2023-04-18T01:16:13.249Z,7.97
2023-04-18T01:17:14.638Z,8.40
2023-04-18T01:18:19.058Z,8.80
2023-04-18T01:19:20.710Z,8.33
2023-04-18T01:20:22.606Z,8.37
2023-04-18T01:21:24.058Z,7.80
2023-04-18T01:22:25.489Z,7.93
2023-04-18T01:23:26.854Z,8.50
2023-04-18T01:24:29.726Z,7.50
2023-04-18T01:25:31.130Z,9.13
2023-04-18T01:26:32.462Z,8.13
2023-04-18T01:27:33.766Z,9.07
2023-04-18T01:28:36.463Z,9.20
2023-04-18T01:29:38.935Z,7.97
2023-04-18T01:30:40.548Z,8.90
2023-04-18T01:31:42.063Z,8.57
2023-04-18T01:32:44.266Z,8.37
2023-04-18T01:33:45.608Z,8.20
2023-04-18T01:34:47.200Z,8.43
2023-04-18T01:35:49.783Z,8.23
2023-04-18T01:36:51.103Z,7.83
2023-04-18T01:37:52.462Z,7.90
2023-04-18T01:38:53.803Z,8.10
2023-04-18T01:39:58.166Z,8.07
2023-04-18T01:40:59.471Z,8.60
2023-04-18T01:42:01.982Z,8.37
2023-04-18T01:43:03.428Z,8.13
2023-04-18T01:44:05.081Z,8.10
2023-04-18T01:45:07.929Z,8.57
2023-04-18T01:46:09.332Z,8.50
2023-04-18T01:47:10.650Z,8.43
2023-04-18T01:48:12.020Z,8.27
2023-04-18T01:49:16.332Z,8.30
2023-04-18T01:50:17.720Z,8.17
2023-04-18T01:51:19.081Z,8.00
2023-04-18T01:52:20.457Z,8.13
2023-04-18T01:53:21.785Z,8.23
2023-04-18T01:54:23.237Z,8.37
2023-04-18T01:55:27.164Z,8.50
2023-04-18T01:56:29.356Z,8.10
2023-04-18T01:57:33.373Z,7.80
2023-04-18T01:58:34.776Z,8.07
2023-04-18T01:59:36.094Z,8.10
2023-04-18T02:00:37.493Z,8.03
2023-04-18T02:01:40.355Z,8.33
2023-04-18T02:02:41.849Z,8.03
2023-04-18T02:03:43.576Z,8.77
2023-04-18T02:04:46.888Z,8.07
2023-04-18T02:05:48.347Z,8.40
2023-04-18T02:06:49.679Z,8.20
2023-04-18T02:07:51.121Z,8.17
2023-04-18T02:08:52.398Z,8.07
2023-04-18T02:09:53.713Z,8.67
2023-04-18T02:10:55.077Z,8.10
2023-04-18T02:11:59.283Z,8.40
2023-04-18T02:13:00.596Z,7.87
2023-04-18T02:14:01.961Z,7.93
2023-04-18T02:15:03.683Z,7.97
2023-04-18T02:16:05.243Z,8.83
2023-04-18T02:17:06.955Z,7.90
2023-04-18T02:18:09.481Z,8.57
2023-04-18T02:19:10.788Z,7.67
2023-04-18T02:20:13.198Z,8.30
2023-04-18T02:21:14.579Z,8.77
2023-04-18T02:22:15.893Z,7.40
2023-04-18T02:23:17.416Z,7.73
2023-04-18T02:24:18.801Z,7.70
2023-04-18T02:25:23.475Z,7.83
2023-04-18T02:26:24.810Z,7.83
2023-04-18T02:27:26.131Z,8.07
2023-04-18T02:28:31.289Z,8.20
2023-04-18T02:29:32.623Z,8.50
2023-04-18T02:30:34.013Z,8.40
2023-04-18T02:31:37.505Z,8.43
2023-04-18T02:32:38.903Z,7.87
2023-04-18T02:33:43.510Z,8.37
2023-04-18T02:34:44.833Z,8.47
2023-04-18T02:35:46.383Z,8.27
2023-04-18T02:36:47.706Z,8.03
2023-04-18T02:37:49.157Z,8.20
2023-04-18T02:38:51.799Z,8.13
2023-04-18T02:39:55.244Z,7.70
2023-04-18T02:40:56.564Z,8.07
2023-04-18T02:41:58.603Z,8.07
2023-04-18T02:42:59.994Z,7.73
2023-04-18T02:44:01.355Z,7.90
2023-04-18T02:45:02.707Z,7.67
2023-04-18T02:46:04.491Z,8.30
2023-04-18T02:47:06.555Z,8.40
2023-04-18T02:48:10.628Z,8.67
2023-04-18T02:49:12.747Z,8.17
2023-04-18T02:50:14.046Z,8.20
2023-04-18T02:51:15.534Z,7.70
2023-04-18T02:52:17.443Z,8.20
2023-04-18T02:53:18.770Z,8.10
2023-04-18T02:54:26.604Z,7.70
2023-04-18T02:55:33.836Z,7.60
2023-04-18T02:56:39.906Z,8.43
2023-04-18T02:57:56.939Z,8.20
2023-04-18T02:59:18.540Z,7.50
2023-04-18T03:00:38.537Z,7.67
2023-04-18T03:02:04.924Z,8.57
2023-04-18T03:03:07.333Z,8.47
2023-04-18T03:04:15.951Z,8.70
2023-04-18T03:05:20.243Z,8.17
2023-04-18T03:06:21.634Z,7.70
2023-04-18T03:07:23.699Z,8.33
2023-04-18T03:08:26.292Z,8.40
2023-04-18T03:09:27.964Z,8.47
2023-04-18T03:10:34.058Z,8.37
2023-04-18T03:11:35.506Z,8.23
2023-04-18T03:12:36.925Z,7.90
2023-04-18T03:13:38.691Z,8.57
2023-04-18T03:14:40.339Z,9.23
2023-04-18T03:15:41.778Z,8.80
2023-04-18T03:16:44.154Z,8.87
2023-04-18T03:17:49.241Z,8.30
2023-04-18T03:18:51.255Z,8.30
2023-04-18T03:19:53.755Z,8.10
2023-04-18T03:20:55.686Z,8.30
2023-04-18T03:21:57.004Z,8.53
2023-04-18T03:22:58.276Z,8.50
2023-04-18T03:24:03.532Z,8.83
2023-04-18T03:25:05.244Z,8.37
2023-04-18T03:26:16.796Z,8.20
2023-04-18T03:27:19.917Z,8.43
2023-04-18T03:28:22.151Z,8.90
2023-04-18T03:29:24.410Z,8.40
2023-04-18T03:30:26.221Z,8.23
2023-04-18T03:31:29.484Z,7.93
2023-04-18T03:32:33.677Z,8.53
2023-04-18T03:33:35.132Z,8.13
2023-04-18T03:34:42.852Z,7.80
2023-04-18T03:35:44.718Z,8.90
2023-04-18T03:36:47.948Z,8.33
2023-04-18T03:37:49.717Z,8.77
2023-04-18T03:38:58.366Z,8.80
2023-04-18T03:40:00.835Z,8.37
2023-04-18T03:41:04.342Z,9.00
2023-04-18T03:42:08.751Z,8.73
2023-04-18T03:43:10.848Z,8.50
2023-04-18T03:44:12.430Z,8.87
2023-04-18T03:45:16.527Z,8.80
2023-04-18T03:46:21.869Z,8.17
2023-04-18T03:47:25.934Z,8.40
2023-04-18T03:48:35.632Z,8.13
2023-04-18T03:49:38.956Z,8.60
2023-04-18T03:50:40.489Z,8.90
2023-04-18T03:51:48.986Z,8.37
2023-04-18T03:52:50.595Z,8.97
2023-04-18T03:53:52.662Z,8.60
2023-04-18T03:54:53.972Z,8.30
2023-04-18T03:56:01.688Z,9.03
2023-04-18T03:57:21.757Z,8.77
2023-04-18T03:58:23.734Z,8.30
2023-04-18T03:59:26.076Z,8.17
2023-04-18T04:00:27.766Z,8.70
2023-04-18T04:01:35.486Z,8.83
2023-04-18T04:02:37.114Z,8.43
2023-04-18T04:03:40.179Z,8.70
2023-04-18T04:04:41.891Z,8.30
2023-04-18T04:05:45.164Z,8.87
2023-04-18T04:06:46.937Z,8.87
2023-04-18T04:07:48.294Z,8.67
2023-04-18T04:08:49.607Z,9.13
2023-04-18T04:09:55.628Z,8.57
2023-04-18T04:10:57.319Z,8.47
2023-04-18T04:11:59.133Z,8.73
2023-04-18T04:13:01.827Z,9.17
2023-04-18T04:14:04.331Z,9.30
2023-04-18T04:15:12.536Z,8.67
2023-04-18T04:16:20.404Z,9.17
2023-04-18T04:17:24.132Z,8.23
2023-04-18T04:18:31.106Z,9.67
2023-04-18T04:19:34.408Z,8.50
2023-04-18T04:20:46.460Z,8.90
2023-04-18T04:21:57.571Z,10.30
2023-04-18T04:22:59.957Z,11.13
2023-04-18T04:24:01.633Z,9.40
2023-04-18T04:25:13.717Z,10.00
2023-04-18T04:26:17.014Z,9.80
2023-04-18T04:27:26.824Z,9.37
2023-04-18T04:28:28.755Z,9.70
2023-04-18T04:29:36.055Z,9.57
2023-04-18T04:30:38.163Z,10.13
2023-04-18T04:31:39.649Z,8.93
2023-04-18T04:32:41.096Z,9.50
2023-04-18T04:33:43.471Z,9.20
2023-04-18T04:34:50.579Z,9.20
2023-04-18T04:35:52.709Z,9.10
2023-04-18T04:36:54.617Z,9.80
2023-04-18T04:37:58.901Z,9.70
2023-04-18T04:39:08.583Z,9.30
2023-04-18T04:40:24.675Z,8.60
2023-04-18T04:41:47.117Z,9.87
2023-04-18T04:42:53.860Z,9.60
2023-04-18T04:44:01.842Z,9.90
2023-04-18T04:45:08.112Z,9.87
2023-04-18T04:46:13.539Z,9.53
2023-04-18T04:47:16.799Z,10.17
2023-04-18T04:48:19.970Z,9.70
2023-04-18T04:49:21.929Z,9.33
2023-04-18T04:50:23.336Z,9.20
2023-04-18T04:51:24.876Z,9.57
2023-04-18T04:52:26.371Z,10.20
2023-04-18T04:53:30.420Z,9.60
2023-04-18T04:54:32.747Z,9.23
2023-04-18T04:55:34.352Z,9.70
2023-04-18T04:56:37.805Z,9.67
2023-04-18T04:57:40.061Z,10.30
2023-04-18T04:58:56.012Z,10.23
2023-04-18T05:00:01.022Z,10.67
2023-04-18T05:01:02.824Z,10.97
2023-04-18T05:02:06.367Z,10.13
2023-04-18T05:03:08.274Z,13.57
2023-04-18T05:04:10.455Z,13.67
2023-04-18T05:05:11.856Z,10.40
2023-04-18T05:06:14.053Z,10.60
2023-04-18T05:07:15.637Z,10.43
2023-04-18T05:08:16.987Z,10.03
2023-04-18T05:09:18.347Z,9.93
2023-04-18T05:10:19.884Z,9.67
2023-04-18T05:11:36.798Z,10.50
2023-04-18T05:12:38.380Z,10.40
2023-04-18T05:13:39.676Z,9.97
2023-04-18T05:14:41.017Z,10.17
2023-04-18T05:15:42.345Z,9.73
2023-04-18T05:16:43.725Z,9.47
2023-04-18T05:17:45.479Z,9.60
2023-04-18T05:18:46.972Z,9.20
2023-04-18T05:19:48.362Z,9.47
2023-04-18T05:20:49.748Z,10.07
2023-04-18T05:21:51.383Z,9.60
2023-04-18T05:24:28.651Z,9.80
2023-04-18T05:25:31.493Z,10.07
2023-04-18T05:26:32.950Z,9.73
2023-04-18T05:27:34.287Z,10.30
2023-04-18T05:28:35.649Z,10.70
2023-04-18T05:29:36.976Z,10.87
2023-04-18T05:30:39.387Z,10.20
2023-04-18T05:31:40.836Z,10.10
2023-04-18T05:32:42.273Z,10.20
2023-04-18T05:33:43.655Z,10.50
2023-04-18T05:34:45.245Z,11.10
2023-04-18T05:35:46.596Z,10.13
2023-04-18T05:36:48.418Z,10.40
2023-04-18T05:37:49.702Z,10.37
2023-04-18T05:38:51.644Z,10.27
2023-04-18T05:39:52.994Z,9.97
2023-04-18T05:40:55.855Z,10.47
2023-04-18T05:41:58.275Z,10.20
2023-04-18T05:43:00.284Z,10.47
2023-04-18T05:44:05.236Z,10.40
2023-04-18T05:45:07.623Z,10.67
2023-04-18T05:46:09.303Z,11.50
2023-04-18T05:47:10.738Z,10.70
2023-04-18T05:48:12.521Z,10.60
2023-04-18T05:49:13.987Z,11.03
2023-04-18T05:50:15.431Z,11.10
2023-04-18T05:51:16.809Z,11.40
2023-04-18T05:52:18.175Z,11.13
2023-04-18T05:53:19.686Z,11.10
2023-04-18T05:54:21.493Z,10.93
2023-04-18T05:55:22.812Z,10.80
2023-04-18T05:56:24.152Z,11.10
2023-04-18T05:57:25.504Z,11.13
2023-04-18T05:58:28.678Z,11.33
2023-04-18T05:59:30.125Z,11.17
2023-04-18T06:00:31.573Z,11.37
2023-04-18T06:01:33.473Z,11.47
2023-04-18T06:02:35.087Z,10.60
2023-04-18T06:03:36.653Z,10.93
2023-04-18T06:04:38.521Z,11.30
2023-04-18T06:05:41.061Z,10.43
2023-04-18T06:06:42.483Z,11.00
2023-04-18T06:07:45.164Z,10.70
2023-04-18T06:10:10.934Z,11.73
2023-04-18T06:11:12.605Z,10.90
2023-04-18T06:12:13.955Z,10.97
2023-04-18T06:13:15.526Z,10.33
2023-04-18T06:14:16.913Z,10.30
2023-04-18T06:15:18.328Z,10.87
2023-04-18T06:16:19.712Z,11.57
2023-04-18T06:17:21.716Z,10.80
2023-04-18T06:18:23.159Z,10.90
2023-04-18T06:19:24.483Z,11.40
2023-04-18T06:20:26.115Z,11.60
2023-04-18T06:21:27.849Z,11.77
2023-04-18T06:22:29.179Z,11.20
2023-04-18T06:23:30.636Z,10.50
2023-04-18T06:24:32.027Z,11.70
2023-04-18T06:25:33.422Z,11.33
2023-04-18T06:26:35.025Z,11.63
2023-04-18T06:27:37.082Z,11.97
2023-04-18T06:28:38.438Z,12.90
2023-04-18T06:29:39.769Z,11.70
2023-04-18T06:30:41.148Z,11.00
2023-04-18T06:31:45.440Z,11.00
2023-04-18T06:32:46.983Z,11.23
2023-04-18T06:33:48.301Z,11.00
2023-04-18T06:34:50.333Z,11.47
2023-04-18T06:35:52.213Z,12.00
2023-04-18T06:36:53.628Z,11.23
2023-04-18T06:37:54.967Z,11.83
2023-04-18T06:38:56.344Z,11.57
2023-04-18T06:39:58.534Z,10.37
2023-04-18T06:40:59.868Z,11.67
2023-04-18T06:42:02.441Z,10.90
2023-04-18T06:43:04.054Z,11.27
2023-04-18T06:44:05.437Z,10.23
2023-04-18T06:45:07.080Z,11.40
2023-04-18T06:46:08.520Z,11.77
2023-04-18T06:47:10.807Z,10.93
2023-04-18T06:48:12.268Z,10.87
2023-04-18T06:49:13.907Z,11.50
2023-04-18T06:50:15.857Z,10.40
2023-04-18T06:51:17.226Z,11.13
2023-04-18T06:52:18.536Z,11.17
2023-04-18T06:53:19.953Z,11.13
2023-04-18T06:54:21.318Z,11.63
2023-04-18T06:55:22.722Z,11.80
2023-04-18T06:56:24.098Z,11.77
2023-04-18T06:57:25.752Z,11.73
2023-04-18T06:58:27.094Z,11.40
2023-04-18T06:59:28.438Z,11.83
2023-04-18T07:00:29.754Z,11.80
2023-04-18T07:01:32.685Z,11.37
2023-04-18T07:02:35.903Z,11.30
2023-04-18T07:03:37.460Z,11.50
2023-04-18T07:04:38.970Z,11.40
2023-04-18T07:05:40.663Z,11.93
2023-04-18T07:06:42.382Z,12.07
2023-04-18T07:07:43.744Z,11.77
2023-04-18T07:08:45.128Z,12.00
2023-04-18T07:09:46.468Z,11.60
2023-04-18T07:10:47.803Z,12.40
2023-04-18T07:11:50.778Z,11.83
2023-04-18T07:12:52.053Z,11.10
2023-04-18T07:13:53.650Z,11.97
2023-04-18T07:14:55.155Z,12.53
2023-04-18T07:15:56.765Z,12.63
2023-04-18T07:16:58.307Z,11.70
2023-04-18T07:17:59.761Z,12.63
2023-04-18T07:19:01.109Z,12.57
2023-04-18T07:20:02.493Z,12.47
2023-04-18T07:21:03.832Z,12.10
2023-04-18T07:22:05.437Z,12.00
2023-04-18T07:23:06.939Z,12.33
2023-04-18T07:24:08.378Z,12.27
2023-04-18T07:25:09.766Z,12.57
2023-04-18T07:26:13.235Z,12.00
2023-04-18T07:27:14.655Z,11.43
2023-04-18T07:28:16.525Z,12.30
2023-04-18T07:29:19.434Z,12.60
2023-04-18T07:30:20.987Z,12.47
2023-04-18T07:31:22.817Z,12.03
2023-04-18T07:32:24.188Z,12.57
2023-04-18T07:33:25.736Z,12.63
2023-04-18T07:34:29.572Z,11.80
2023-04-18T07:35:30.892Z,11.60
2023-04-18T07:36:32.585Z,11.77
2023-04-18T07:37:33.885Z,11.00
2023-04-18T07:38:35.439Z,11.60
2023-04-18T07:39:36.793Z,11.50
2023-04-18T07:40:38.336Z,12.47
2023-04-18T07:41:39.689Z,12.30
2023-04-18T07:42:41.262Z,11.57
2023-04-18T07:43:44.780Z,11.00
2023-04-18T07:44:46.905Z,12.17
2023-04-18T07:45:48.225Z,11.63
2023-04-18T07:46:49.672Z,11.70
2023-04-18T07:47:51.128Z,11.33
2023-04-18T07:48:52.445Z,11.57
2023-04-18T07:49:53.851Z,11.97
2023-04-18T07:50:55.185Z,11.93
2023-04-18T07:51:56.522Z,11.07
2023-04-18T07:52:57.858Z,11.53
2023-04-18T07:53:59.424Z,11.33
2023-04-18T07:55:00.785Z,10.93
2023-04-18T07:56:02.093Z,11.23
2023-04-18T07:57:03.424Z,11.23
2023-04-18T07:58:04.742Z,11.40
2023-04-18T07:59:06.045Z,11.53
2023-04-18T08:00:07.674Z,11.17
2023-04-18T08:01:15.234Z,11.73
2023-04-18T08:02:16.676Z,11.53
2023-04-18T08:03:18.351Z,11.50
2023-04-18T08:04:19.853Z,12.03
2023-04-18T08:05:21.415Z,11.50
2023-04-18T08:06:22.803Z,11.93
2023-04-18T08:07:24.082Z,11.37
2023-04-18T08:08:25.420Z,11.70
2023-04-18T08:09:26.719Z,11.60
2023-04-18T08:10:28.127Z,11.07
2023-04-18T08:11:29.498Z,10.93
2023-04-18T08:12:30.992Z,12.13
2023-04-18T08:13:32.387Z,11.23
2023-04-18T08:14:33.732Z,11.80
2023-04-18T08:15:35.246Z,12.10
2023-04-18T08:16:36.653Z,11.90
2023-04-18T08:17:38.935Z,11.77
2023-04-18T08:18:40.569Z,11.90
2023-04-18T08:19:41.907Z,11.67
2023-04-18T08:20:44.196Z,10.87
2023-04-18T08:21:47.164Z,10.53
2023-04-18T08:23:04.835Z,11.20
2023-04-18T08:24:08.052Z,11.27
2023-04-18T08:25:09.695Z,10.93
2023-04-18T08:26:11.050Z,11.17
2023-04-18T08:27:12.384Z,11.73
2023-04-18T08:28:13.722Z,11.23
2023-04-18T08:29:15.365Z,10.87
2023-04-18T08:30:16.957Z,10.50
2023-04-18T08:31:18.384Z,11.13
2023-04-18T08:32:19.809Z,11.17
2023-04-18T08:33:21.932Z,11.47
2023-04-18T08:34:23.500Z,11.30
2023-04-18T08:35:24.873Z,11.50
2023-04-18T08:36:26.751Z,12.20
2023-04-18T08:37:28.475Z,11.87
2023-04-18T08:38:29.890Z,12.37
2023-04-18T08:39:31.271Z,11.43
2023-04-18T08:40:32.572Z,10.53
2023-04-18T08:41:35.878Z,10.10
2023-04-18T08:42:39.961Z,10.70
2023-04-18T08:43:41.320Z,10.73
2023-04-18T08:44:43.032Z,11.10
2023-04-18T08:45:44.979Z,10.97
2023-04-18T08:46:46.395Z,10.93
2023-04-18T08:47:47.826Z,10.30
2023-04-18T08:48:49.677Z,9.83
2023-04-18T08:49:53.489Z,10.93
2023-04-18T08:50:58.554Z,11.17
2023-04-18T08:52:01.089Z,11.17
2023-04-18T08:53:02.691Z,10.63
2023-04-18T08:54:06.170Z,10.40
2023-04-18T08:55:07.803Z,11.40
2023-04-18T08:56:10.424Z,10.90
2023-04-18T08:57:16.635Z,10.67
2023-04-18T08:58:22.221Z,10.70
2023-04-18T08:59:23.754Z,10.80
2023-04-18T09:00:25.629Z,10.33
2023-04-18T09:01:45.554Z,10.23
2023-04-18T09:02:47.349Z,10.17
2023-04-18T09:03:48.866Z,10.13
2023-04-18T09:04:53.508Z,10.77
2023-04-18T09:06:28.655Z,9.80
2023-04-18T09:07:30.502Z,9.80
2023-04-18T09:08:31.887Z,10.13
2023-04-18T09:09:40.114Z,10.17
2023-04-18T09:10:43.050Z,10.50
2023-04-18T09:11:45.616Z,9.17
2023-04-18T09:12:50.601Z,9.90
2023-04-18T09:13:53.118Z,10.30
2023-04-18T09:14:57.641Z,10.40
2023-04-18T09:15:59.107Z,10.20
2023-04-18T09:17:00.760Z,9.73
2023-04-18T09:18:03.336Z,10.20
2023-04-18T09:19:18.469Z,10.20
2023-04-18T09:20:41.191Z,9.60
2023-04-18T09:21:46.197Z,9.53
2023-04-18T09:22:48.805Z,10.17
2023-04-18T09:23:50.338Z,9.93
2023-04-18T09:24:57.958Z,9.70
2023-04-18T09:25:59.244Z,10.17
2023-04-18T09:27:01.185Z,10.33
2023-04-18T09:28:03.530Z,9.37
2023-04-18T09:29:05.100Z,10.23
2023-04-18T09:30:06.892Z,9.77
2023-04-18T09:31:10.087Z,10.23
2023-04-18T09:32:19.291Z,10.03
2023-04-18T09:33:33.867Z,10.10
2023-04-18T09:34:41.644Z,10.30
2023-04-18T09:35:43.342Z,10.37
2023-04-18T09:36:44.753Z,10.13
2023-04-18T09:37:50.257Z,10.10
2023-04-18T09:38:54.633Z,10.00
2023-04-18T09:39:57.963Z,9.77
2023-04-18T09:41:09.131Z,9.93
2023-04-18T09:42:11.071Z,10.10
2023-04-18T09:43:19.494Z,9.43
2023-04-18T09:44:21.146Z,10.63
2023-04-18T09:45:23.660Z,9.60
2023-04-18T09:46:25.732Z,10.17
2023-04-18T09:47:27.807Z,9.90
2023-04-18T09:48:29.162Z,11.03
2023-04-18T09:49:30.598Z,10.27
2023-04-18T09:50:32.680Z,10.27
2023-04-18T09:51:34.192Z,10.20
2023-04-18T09:52:39.793Z,11.10
2023-04-18T09:53:41.861Z,10.07
2023-04-18T09:54:45.564Z,10.20
2023-04-18T09:55:53.038Z,10.13
2023-04-18T09:56:56.309Z,9.83
2023-04-18T09:57:59.334Z,9.77
2023-04-18T09:59:08.825Z,9.60
2023-04-18T10:00:16.685Z,10.47
2023-04-18T10:01:19.002Z,10.37
2023-04-18T10:02:22.050Z,10.23
2023-04-18T10:03:27.570Z,10.57
2023-04-18T10:04:29.582Z,9.80
2023-04-18T10:05:32.278Z,10.30
2023-04-18T10:06:35.102Z,9.37
2023-04-18T10:07:36.865Z,9.93
2023-04-18T10:08:39.175Z,9.40
2023-04-18T10:09:42.598Z,9.37
2023-04-18T10:10:43.966Z,9.53
2023-04-18T10:11:45.384Z,9.30
2023-04-18T10:12:48.033Z,9.30
2023-04-18T10:13:50.758Z,9.90
2023-04-18T10:14:53.166Z,9.50
2023-04-18T10:15:55.017Z,9.17
2023-04-18T10:16:57.502Z,8.90
2023-04-18T10:18:05.889Z,8.50
2023-04-18T10:19:24.745Z,8.77
2023-04-18T10:20:27.163Z,9.07
2023-04-18T10:21:28.650Z,8.33
2023-04-18T10:22:30.752Z,8.40
2023-04-18T10:23:32.162Z,9.27
2023-04-18T10:24:49.374Z,9.00
2023-04-18T10:25:50.974Z,8.93
2023-04-18T10:26:52.321Z,9.80
2023-04-18T10:27:54.722Z,9.03
2023-04-18T10:28:57.324Z,9.13
2023-04-18T10:29:58.742Z,9.03
2023-04-18T10:31:03.698Z,8.83
2023-04-18T10:32:06.035Z,9.23
2023-04-18T10:33:30.451Z,8.80
2023-04-18T10:34:32.975Z,8.40
2023-04-18T10:35:35.335Z,8.63
2023-04-18T10:36:36.725Z,8.70
2023-04-18T10:37:50.615Z,7.53
2023-04-18T10:38:53.623Z,8.20
2023-04-18T10:40:00.251Z,8.60
2023-04-18T10:41:13.882Z,8.03
2023-04-18T10:42:15.239Z,8.50
2023-04-18T10:43:16.589Z,7.60
2023-04-18T10:44:18.728Z,7.83
2023-04-18T10:45:21.037Z,7.70
2023-04-18T10:46:31.825Z,7.57
2023-04-18T10:47:34.214Z,7.30
2023-04-18T10:48:39.002Z,7.37
2023-04-18T10:49:52.639Z,8.20
2023-04-18T10:51:15.603Z,8.17
2023-04-18T10:52:16.962Z,7.83
2023-04-18T10:53:18.295Z,7.60
2023-04-18T10:54:30.708Z,8.40
2023-04-18T10:55:32.130Z,7.33
2023-04-18T10:56:33.559Z,7.73
2023-04-18T10:57:38.819Z,8.20
2023-04-18T10:58:41.431Z,8.07
2023-04-18T10:59:44.281Z,7.73
2023-04-18T11:00:47.514Z,7.87
2023-04-18T11:01:49.303Z,8.03
2023-04-18T11:02:52.111Z,7.60
2023-04-18T11:03:54.891Z,7.47
2023-04-18T11:04:57.065Z,7.40
2023-04-18T11:06:02.829Z,6.77
2023-04-18T11:07:04.922Z,7.20
2023-04-18T11:08:21.369Z,7.03
2023-04-18T11:09:22.832Z,7.53
2023-04-18T11:10:26.569Z,7.10
2023-04-18T11:11:28.036Z,6.90
2023-04-18T11:12:36.275Z,6.90
2023-04-18T11:13:37.958Z,7.20
2023-04-18T11:14:40.413Z,7.57
2023-04-18T11:15:41.750Z,7.10
2023-04-18T11:16:43.084Z,7.10
2023-04-18T11:17:44.490Z,6.80
2023-04-18T11:18:45.940Z,6.90
2023-04-18T11:19:48.042Z,7.70
2023-04-18T11:20:50.260Z,7.40
2023-04-18T11:21:51.779Z,7.40
2023-04-18T11:22:54.451Z,7.20
2023-04-18T11:23:56.328Z,6.97
2023-04-18T11:24:58.992Z,6.57
2023-04-18T11:26:01.693Z,6.63
2023-04-18T11:27:08.271Z,7.00
2023-04-18T11:28:13.419Z,6.70
2023-04-18T11:29:16.896Z,6.53
2023-04-18T11:30:18.323Z,7.10
2023-04-18T11:31:23.075Z,6.80
2023-04-18T11:32:24.704Z,6.73
2023-04-18T11:33:28.001Z,6.67
2023-04-18T11:34:33.099Z,6.80
2023-04-18T11:35:41.380Z,7.17
2023-04-18T11:36:42.700Z,7.43
2023-04-18T11:37:45.805Z,7.20
2023-04-18T11:38:47.229Z,6.53
2023-04-18T11:39:48.603Z,7.37
2023-04-18T11:40:50.235Z,6.30
2023-04-18T11:41:51.678Z,6.57
2023-04-18T11:42:54.043Z,6.27
2023-04-18T11:43:56.099Z,6.80
2023-04-18T11:44:57.456Z,6.47
2023-04-18T11:45:59.596Z,6.00
2023-04-18T11:47:00.986Z,6.00
2023-04-18T11:48:02.458Z,6.53
2023-04-18T11:49:03.779Z,6.20
2023-04-18T11:50:06.668Z,6.70
2023-04-18T11:51:08.524Z,6.57
2023-04-18T11:52:14.075Z,6.27
2023-04-18T11:53:15.461Z,5.90
2023-04-18T11:54:35.830Z,6.20
2023-04-18T11:55:37.254Z,5.47
2023-04-18T11:56:46.746Z,6.33
2023-04-18T11:57:51.604Z,5.53
2023-04-18T11:58:53.325Z,5.73
2023-04-18T11:59:54.963Z,6.03
2023-04-18T12:00:56.293Z,6.10
2023-04-18T12:02:14.915Z,6.00
2023-04-18T12:03:18.786Z,5.93
2023-04-18T12:04:20.852Z,5.60
2023-04-18T12:05:26.596Z,5.20
2023-04-18T12:06:29.613Z,5.90
2023-04-18T12:07:44.750Z,5.53
2023-04-18T12:08:46.212Z,5.73
2023-04-18T12:09:47.592Z,5.60
2023-04-18T12:10:50.557Z,5.53
2023-04-18T12:12:02.638Z,5.30
2023-04-18T12:13:08.684Z,5.60
2023-04-18T12:14:22.358Z,5.13
2023-04-18T12:15:29.501Z,5.03
2023-04-18T12:16:30.917Z,5.30
2023-04-18T12:17:32.575Z,5.10
2023-04-18T12:18:34.141Z,5.27
2023-04-18T12:19:35.432Z,5.07
2023-04-18T12:20:38.166Z,5.00
2023-04-18T12:21:53.905Z,4.60
2023-04-18T12:22:55.564Z,4.40
2023-04-18T12:23:58.488Z,5.20
2023-04-18T12:25:24.314Z,5.00
2023-04-18T12:26:27.450Z,4.83
2023-04-18T12:27:46.557Z,4.40
2023-04-18T12:28:49.354Z,4.23
2023-04-18T12:29:50.689Z,4.70
2023-04-18T12:30:52.162Z,4.23
2023-04-18T12:31:55.532Z,4.20
2023-04-18T12:32:58.246Z,4.23
2023-04-18T12:34:00.482Z,4.10
2023-04-18T12:35:01.947Z,4.17
2023-04-18T12:36:05.223Z,4.00
2023-04-18T12:37:06.672Z,4.07
2023-04-18T12:38:08.050Z,3.93
2023-04-18T12:39:10.190Z,4.13
2023-04-18T12:40:13.510Z,4.27
2023-04-18T12:41:14.847Z,4.00
2023-04-18T12:42:16.196Z,3.73
2023-04-18T12:43:18.034Z,4.00
2023-04-18T12:44:19.388Z,4.10
2023-04-18T12:45:21.693Z,4.03
2023-04-18T12:46:23.034Z,4.47
2023-04-18T12:47:24.424Z,4.27
2023-04-18T12:48:25.914Z,4.07
2023-04-18T12:49:27.268Z,4.07
2023-04-18T12:50:28.697Z,3.77
2023-04-18T12:51:30.120Z,4.20
2023-04-18T12:52:31.614Z,4.40
2023-04-18T12:53:33.146Z,4.47
2023-04-18T12:54:36.704Z,4.87
2023-04-18T12:55:39.220Z,3.87
2023-04-18T12:56:40.657Z,4.43
2023-04-18T12:57:42.506Z,4.20
2023-04-18T12:58:45.286Z,3.83
2023-04-18T12:59:46.621Z,3.87
2023-04-18T13:00:47.925Z,4.50
2023-04-18T13:01:49.303Z,3.57
2023-04-18T13:02:52.416Z,3.90
2023-04-18T13:04:04.354Z,3.80
2023-04-18T13:05:13.893Z,4.50
2023-04-18T13:06:15.566Z,3.73
2023-04-18T13:07:17.470Z,3.67
2023-04-18T13:08:19.059Z,4.03
2023-04-18T13:09:20.494Z,3.83
2023-04-18T13:10:22.552Z,3.90
2023-04-18T13:11:28.358Z,3.73
2023-04-18T13:12:30.624Z,3.83
2023-04-18T13:13:33.854Z,3.50
2023-04-18T13:14:36.547Z,3.70
2023-04-18T13:15:37.983Z,4.00
2023-04-18T13:16:40.549Z,4.20
2023-04-18T13:17:43.844Z,3.37
2023-04-18T13:18:45.199Z,3.77
2023-04-18T13:19:46.689Z,4.20
2023-04-18T13:20:49.471Z,3.70
2023-04-18T13:21:51.114Z,3.40
2023-04-18T13:22:52.463Z,3.60
2023-04-18T13:23:53.837Z,3.90
2023-04-18T13:24:55.175Z,3.50
2023-04-18T13:25:56.485Z,3.87
2023-04-18T13:26:57.792Z,3.93
2023-04-18T13:28:00.669Z,4.20
2023-04-18T13:29:02.444Z,4.07
2023-04-18T13:30:04.087Z,3.80
2023-04-18T13:31:05.954Z,4.03
2023-04-18T13:32:07.736Z,3.40
2023-04-18T13:33:10.249Z,3.80
2023-04-18T13:34:11.651Z,4.13
2023-04-18T13:35:13.243Z,3.90
2023-04-18T13:36:14.568Z,4.40
2023-04-18T13:37:16.871Z,3.80
2023-04-18T13:38:18.254Z,3.90
2023-04-18T13:39:19.686Z,3.67
2023-04-18T13:40:21.015Z,3.70
2023-04-18T13:41:22.507Z,4.03
2023-04-18T13:42:23.864Z,3.93
2023-04-18T13:43:25.840Z,4.20
2023-04-18T13:44:27.123Z,3.60
2023-04-18T13:45:28.529Z,3.33
2023-04-18T13:46:30.970Z,3.80
2023-04-18T13:47:32.526Z,3.70
2023-04-18T13:48:33.939Z,3.87
2023-04-18T13:49:36.298Z,3.90
2023-04-18T13:50:37.650Z,4.10
2023-04-18T13:51:39.046Z,4.17
2023-04-18T13:52:40.462Z,3.87
2023-04-18T13:53:41.783Z,4.00